sensor_id;sensor_type;location;lat;lon;timestamp;pressure;altitude;pressure_sealevel;temperature;humidity
49915;BME280;35806;47.958;13.158;2023-11-21T00:00:32;94172.41;;;9.14;46.05
49915;BME280;35806;47.958;13.158;2023-11-21T00:02:59;94171.72;;;9.07;46.10
49915;BME280;35806;47.958;13.158;2023-11-21T00:05:26;94178.06;;;8.93;46.67
49915;BME280;35806;47.958;13.158;2023-11-21T00:07:53;94171.08;;;9.73;44.48
49915;BME280;35806;47.958;13.158;2023-11-21T00:10:21;94174.43;;;9.31;46.20
49915;BME280;35806;47.958;13.158;2023-11-21T00:12:49;94176.43;;;9.41;45.60
49915;BME280;35806;47.958;13.158;2023-11-21T00:15:16;94181.42;;;8.40;46.63
49915;BME280;35806;47.958;13.158;2023-11-21T00:17:44;94182.37;;;8.30;47.00
49915;BME280;35806;47.958;13.158;2023-11-21T00:20:11;94182.70;;;9.45;46.71
49915;BME280;35806;47.958;13.158;2023-11-21T00:22:39;94183.55;;;9.00;46.12
49915;BME280;35806;47.958;13.158;2023-11-21T00:25:12;94182.33;;;8.84;46.11
49915;BME280;35806;47.958;13.158;2023-11-21T00:27:39;94180.04;;;8.57;46.71
49915;BME280;35806;47.958;13.158;2023-11-21T00:30:08;94176.87;;;8.82;47.28
49915;BME280;35806;47.958;13.158;2023-11-21T00:32:40;94177.25;;;9.13;46.28
49915;BME280;35806;47.958;13.158;2023-11-21T00:35:08;94174.31;;;7.48;48.57
49915;BME280;35806;47.958;13.158;2023-11-21T00:37:35;94169.19;;;8.93;46.71
49915;BME280;35806;47.958;13.158;2023-11-21T00:40:09;94170.65;;;8.85;46.48
49915;BME280;35806;47.958;13.158;2023-11-21T00:42:37;94167.75;;;9.28;46.04
49915;BME280;35806;47.958;13.158;2023-11-21T00:45:05;94178.03;;;8.27;47.23
49915;BME280;35806;47.958;13.158;2023-11-21T00:47:38;94184.73;;;9.00;46.39
49915;BME280;35806;47.958;13.158;2023-11-21T00:50:07;94184.87;;;8.91;45.68
49915;BME280;35806;47.958;13.158;2023-11-21T00:52:34;94183.11;;;8.55;46.48
49915;BME280;35806;47.958;13.158;2023-11-21T00:55:02;94185.69;;;5.99;52.12
49915;BME280;35806;47.958;13.158;2023-11-21T00:57:29;94182.97;;;8.07;49.34
49915;BME280;35806;47.958;13.158;2023-11-21T00:59:57;94181.28;;;8.58;48.27
49915;BME280;35806;47.958;13.158;2023-11-21T01:02:24;94181.04;;;8.68;48.04
49915;BME280;35806;47.958;13.158;2023-11-21T01:04:52;94176.50;;;8.43;48.57
49915;BME280;35806;47.958;13.158;2023-11-21T01:07:20;94178.25;;;8.67;47.91
49915;BME280;35806;47.958;13.158;2023-11-21T01:09:47;94171.99;;;8.49;48.11
49915;BME280;35806;47.958;13.158;2023-11-21T01:12:15;94164.67;;;8.01;48.08
49915;BME280;35806;47.958;13.158;2023-11-21T01:14:47;94170.69;;;8.65;46.96
49915;BME280;35806;47.958;13.158;2023-11-21T01:17:15;94169.02;;;8.13;48.04
49915;BME280;35806;47.958;13.158;2023-11-21T01:19:42;94167.56;;;8.33;47.67
49915;BME280;35806;47.958;13.158;2023-11-21T01:22:10;94167.14;;;8.18;48.97
49915;BME280;35806;47.958;13.158;2023-11-21T01:24:37;94168.78;;;8.05;49.67
49915;BME280;35806;47.958;13.158;2023-11-21T01:27:10;94172.81;;;8.04;48.52
49915;BME280;35806;47.958;13.158;2023-11-21T01:29:38;94169.15;;;8.55;47.92
49915;BME280;35806;47.958;13.158;2023-11-21T01:32:10;94172.53;;;8.46;48.41
49915;BME280;35806;47.958;13.158;2023-11-21T01:34:38;94173.62;;;8.72;48.16
49915;BME280;35806;47.958;13.158;2023-11-21T01:37:10;94175.47;;;8.49;48.06
49915;BME280;35806;47.958;13.158;2023-11-21T01:39:43;94174.11;;;8.58;48.21
49915;BME280;35806;47.958;13.158;2023-11-21T01:42:10;94173.92;;;8.56;47.15
49915;BME280;35806;47.958;13.158;2023-11-21T01:44:38;94177.35;;;7.94;49.21
49915;BME280;35806;47.958;13.158;2023-11-21T01:47:06;94183.50;;;7.58;50.74
49915;BME280;35806;47.958;13.158;2023-11-21T01:49:35;94186.82;;;5.72;54.88
49915;BME280;35806;47.958;13.158;2023-11-21T01:52:04;94188.86;;;6.23;55.92
49915;BME280;35806;47.958;13.158;2023-11-21T01:54:32;94187.32;;;5.65;56.40
49915;BME280;35806;47.958;13.158;2023-11-21T01:57:00;94181.56;;;6.94;54.72
49915;BME280;35806;47.958;13.158;2023-11-21T01:59:29;94184.10;;;7.02;54.55
49915;BME280;35806;47.958;13.158;2023-11-21T02:15:26;94176.20;;;6.78;52.02
49915;BME280;35806;47.958;13.158;2023-11-21T02:17:53;94174.37;;;7.24;52.57
49915;BME280;35806;47.958;13.158;2023-11-21T02:20:21;94169.43;;;6.25;53.29
49915;BME280;35806;47.958;13.158;2023-11-21T02:22:50;94160.63;;;6.99;52.59
49915;BME280;35806;47.958;13.158;2023-11-21T02:25:17;94154.16;;;6.76;53.91
49915;BME280;35806;47.958;13.158;2023-11-21T02:27:44;94148.31;;;7.92;51.50
49915;BME280;35806;47.958;13.158;2023-11-21T02:30:11;94144.40;;;8.13;50.57
49915;BME280;35806;47.958;13.158;2023-11-21T02:32:39;94143.62;;;7.46;51.03
49915;BME280;35806;47.958;13.158;2023-11-21T02:35:07;94139.10;;;7.24;52.22
49915;BME280;35806;47.958;13.158;2023-11-21T02:37:34;94136.10;;;7.09;52.34
49915;BME280;35806;47.958;13.158;2023-11-21T02:40:09;94134.15;;;7.29;52.23
49915;BME280;35806;47.958;13.158;2023-11-21T02:42:36;94133.53;;;7.57;51.55
49915;BME280;35806;47.958;13.158;2023-11-21T02:45:05;94131.97;;;7.35;51.96
49915;BME280;35806;47.958;13.158;2023-11-21T02:47:33;94131.11;;;7.18;52.24
49915;BME280;35806;47.958;13.158;2023-11-21T02:50:00;94127.27;;;7.13;52.34
49915;BME280;35806;47.958;13.158;2023-11-21T02:52:28;94124.40;;;7.13;51.98
49915;BME280;35806;47.958;13.158;2023-11-21T02:54:54;94127.42;;;7.38;51.67
49915;BME280;35806;47.958;13.158;2023-11-21T02:57:22;94129.95;;;7.17;51.56
49915;BME280;35806;47.958;13.158;2023-11-21T02:59:50;94130.44;;;7.46;51.33
49915;BME280;35806;47.958;13.158;2023-11-21T03:02:17;94125.71;;;7.82;50.59
49915;BME280;35806;47.958;13.158;2023-11-21T03:04:45;94126.44;;;7.29;50.90
49915;BME280;35806;47.958;13.158;2023-11-21T03:07:12;94123.65;;;7.72;50.53
49915;BME280;35806;47.958;13.158;2023-11-21T03:09:39;94123.14;;;7.67;50.46
49915;BME280;35806;47.958;13.158;2023-11-21T03:12:07;94118.60;;;8.31;49.43
49915;BME280;35806;47.958;13.158;2023-11-21T03:14:34;94118.97;;;8.57;49.21
49915;BME280;35806;47.958;13.158;2023-11-21T03:17:11;94118.62;;;8.37;49.52
49915;BME280;35806;47.958;13.158;2023-11-21T03:19:39;94118.79;;;8.33;49.95
49915;BME280;35806;47.958;13.158;2023-11-21T03:22:09;94114.77;;;8.70;49.13
49915;BME280;35806;47.958;13.158;2023-11-21T03:24:35;94113.65;;;8.07;50.02
49915;BME280;35806;47.958;13.158;2023-11-21T03:27:02;94112.81;;;8.71;50.25
49915;BME280;35806;47.958;13.158;2023-11-21T03:29:30;94110.85;;;8.14;50.34
49915;BME280;35806;47.958;13.158;2023-11-21T03:31:58;94115.66;;;7.24;51.56
49915;BME280;35806;47.958;13.158;2023-11-21T03:34:26;94117.34;;;7.09;51.92
49915;BME280;35806;47.958;13.158;2023-11-21T03:36:53;94116.47;;;7.34;52.12
49915;BME280;35806;47.958;13.158;2023-11-21T03:39:21;94113.80;;;7.36;51.70
49915;BME280;35806;47.958;13.158;2023-11-21T03:41:49;94115.03;;;7.57;51.40
49915;BME280;35806;47.958;13.158;2023-11-21T03:44:17;94114.84;;;7.12;51.86
49915;BME280;35806;47.958;13.158;2023-11-21T03:46:45;94114.96;;;7.00;52.14
49915;BME280;35806;47.958;13.158;2023-11-21T03:49:12;94117.24;;;7.41;51.33
49915;BME280;35806;47.958;13.158;2023-11-21T03:51:40;94117.11;;;7.46;50.97
49915;BME280;35806;47.958;13.158;2023-11-21T03:54:12;94115.35;;;7.93;50.53
49915;BME280;35806;47.958;13.158;2023-11-21T03:56:39;94113.73;;;8.12;50.14
49915;BME280;35806;47.958;13.158;2023-11-21T03:59:06;94116.51;;;8.44;50.16
49915;BME280;35806;47.958;13.158;2023-11-21T04:01:34;94117.39;;;8.52;50.81
49915;BME280;35806;47.958;13.158;2023-11-21T04:04:01;94117.39;;;8.16;51.65
49915;BME280;35806;47.958;13.158;2023-11-21T04:06:29;94112.61;;;8.23;50.33
49915;BME280;35806;47.958;13.158;2023-11-21T04:08:56;94112.16;;;7.48;50.69
49915;BME280;35806;47.958;13.158;2023-11-21T04:11:24;94110.39;;;7.71;50.91
49915;BME280;35806;47.958;13.158;2023-11-21T04:13:51;94108.67;;;8.07;50.87
49915;BME280;35806;47.958;13.158;2023-11-21T04:16:24;94102.58;;;7.87;51.03
49915;BME280;35806;47.958;13.158;2023-11-21T04:18:51;94100.30;;;8.07;50.54
49915;BME280;35806;47.958;13.158;2023-11-21T04:21:18;94104.50;;;8.01;50.16
49915;BME280;35806;47.958;13.158;2023-11-21T04:23:46;94099.39;;;8.27;50.11
49915;BME280;35806;47.958;13.158;2023-11-21T04:26:14;94106.07;;;8.40;49.68
49915;BME280;35806;47.958;13.158;2023-11-21T04:28:41;94104.85;;;8.36;50.18
49915;BME280;35806;47.958;13.158;2023-11-21T04:31:09;94106.01;;;8.13;50.76
49915;BME280;35806;47.958;13.158;2023-11-21T04:33:36;94112.87;;;8.64;50.27
49915;BME280;35806;47.958;13.158;2023-11-21T04:36:09;94108.45;;;8.38;49.89
49915;BME280;35806;47.958;13.158;2023-11-21T04:38:47;94109.72;;;8.05;50.43
49915;BME280;35806;47.958;13.158;2023-11-21T04:41:14;94106.96;;;8.11;51.10
49915;BME280;35806;47.958;13.158;2023-11-21T04:43:41;94102.12;;;8.60;51.28
49915;BME280;35806;47.958;13.158;2023-11-21T04:46:09;94101.29;;;8.03;53.22
49915;BME280;35806;47.958;13.158;2023-11-21T04:48:37;94102.78;;;7.33;53.49
49915;BME280;35806;47.958;13.158;2023-11-21T04:51:05;94106.29;;;7.18;53.49
49915;BME280;35806;47.958;13.158;2023-11-21T04:53:32;94113.56;;;7.51;52.99
49915;BME280;35806;47.958;13.158;2023-11-21T04:56:00;94116.80;;;7.19;53.21
49915;BME280;35806;47.958;13.158;2023-11-21T04:58:27;94125.95;;;7.59;52.36
49915;BME280;35806;47.958;13.158;2023-11-21T05:00:54;94135.29;;;7.05;53.64
49915;BME280;35806;47.958;13.158;2023-11-21T05:03:21;94132.05;;;6.64;54.82
49915;BME280;35806;47.958;13.158;2023-11-21T05:05:49;94134.04;;;6.04;56.43
49915;BME280;35806;47.958;13.158;2023-11-21T05:08:16;94137.73;;;6.91;56.58
49915;BME280;35806;47.958;13.158;2023-11-21T05:10:43;94136.46;;;6.64;56.71
49915;BME280;35806;47.958;13.158;2023-11-21T05:13:11;94135.07;;;5.42;59.39
49915;BME280;35806;47.958;13.158;2023-11-21T05:15:38;94138.87;;;5.35;60.22
49915;BME280;35806;47.958;13.158;2023-11-21T05:18:05;94137.35;;;5.02;61.63
49915;BME280;35806;47.958;13.158;2023-11-21T05:20:33;94142.30;;;4.30;65.20
49915;BME280;35806;47.958;13.158;2023-11-21T05:23:00;94139.58;;;4.03;65.28
49915;BME280;35806;47.958;13.158;2023-11-21T05:25:27;94148.61;;;3.43;67.41
49915;BME280;35806;47.958;13.158;2023-11-21T05:27:55;94145.40;;;3.54;68.76
49915;BME280;35806;47.958;13.158;2023-11-21T05:30:28;94147.98;;;4.53;65.34
49915;BME280;35806;47.958;13.158;2023-11-21T05:32:55;94147.20;;;4.36;65.12
49915;BME280;35806;47.958;13.158;2023-11-21T05:35:22;94151.41;;;4.52;63.99
49915;BME280;35806;47.958;13.158;2023-11-21T05:37:49;94152.15;;;5.07;63.87
49915;BME280;35806;47.958;13.158;2023-11-21T05:40:17;94143.11;;;4.93;64.88
49915;BME280;35806;47.958;13.158;2023-11-21T05:42:44;94141.67;;;4.83;64.43
49915;BME280;35806;47.958;13.158;2023-11-21T05:45:28;94140.69;;;5.07;63.43
49915;BME280;35806;47.958;13.158;2023-11-21T05:48:00;94142.26;;;4.94;64.56
49915;BME280;35806;47.958;13.158;2023-11-21T05:50:28;94147.07;;;4.25;66.28
49915;BME280;35806;47.958;13.158;2023-11-21T05:52:55;94149.78;;;4.22;68.33
49915;BME280;35806;47.958;13.158;2023-11-21T05:55:42;94147.29;;;5.56;66.20
49915;BME280;35806;47.958;13.158;2023-11-21T05:58:14;94149.83;;;5.87;64.03
49915;BME280;35806;47.958;13.158;2023-11-21T06:00:41;94144.31;;;5.28;65.14
49915;BME280;35806;47.958;13.158;2023-11-21T06:03:18;94142.52;;;5.24;64.81
49915;BME280;35806;47.958;13.158;2023-11-21T06:05:45;94143.53;;;5.48;64.61
49915;BME280;35806;47.958;13.158;2023-11-21T06:08:17;94141.99;;;5.92;63.13
49915;BME280;35806;47.958;13.158;2023-11-21T06:10:45;94136.09;;;5.66;63.87
49915;BME280;35806;47.958;13.158;2023-11-21T06:13:17;94141.77;;;5.99;63.85
49915;BME280;35806;47.958;13.158;2023-11-21T06:15:45;94145.09;;;5.55;64.66
49915;BME280;35806;47.958;13.158;2023-11-21T06:18:11;94148.78;;;5.68;64.28
49915;BME280;35806;47.958;13.158;2023-11-21T06:20:48;94147.14;;;5.93;64.08
49915;BME280;35806;47.958;13.158;2023-11-21T06:23:15;94149.73;;;5.70;64.21
49915;BME280;35806;47.958;13.158;2023-11-21T06:25:43;94150.05;;;6.48;63.28
49915;BME280;35806;47.958;13.158;2023-11-21T06:28:11;94149.54;;;6.08;63.82
49915;BME280;35806;47.958;13.158;2023-11-21T06:30:38;94155.77;;;6.23;63.58
49915;BME280;35806;47.958;13.158;2023-11-21T06:33:05;94159.19;;;6.28;63.20
49915;BME280;35806;47.958;13.158;2023-11-21T06:35:34;94163.62;;;6.19;63.14
49915;BME280;35806;47.958;13.158;2023-11-21T06:38:02;94162.66;;;6.27;63.95
49915;BME280;35806;47.958;13.158;2023-11-21T06:40:29;94166.49;;;6.03;64.15
49915;BME280;35806;47.958;13.158;2023-11-21T06:43:02;94167.13;;;4.74;67.21
49915;BME280;35806;47.958;13.158;2023-11-21T06:45:29;94167.10;;;5.72;65.56
49915;BME280;35806;47.958;13.158;2023-11-21T06:48:02;94167.06;;;6.16;64.59
49915;BME280;35806;47.958;13.158;2023-11-21T06:50:35;94160.49;;;5.26;66.35
49915;BME280;35806;47.958;13.158;2023-11-21T06:53:03;94164.78;;;5.55;66.44
49915;BME280;35806;47.958;13.158;2023-11-21T06:55:30;94164.13;;;6.01;65.42
49915;BME280;35806;47.958;13.158;2023-11-21T06:58:03;94172.23;;;4.34;69.43
49915;BME280;35806;47.958;13.158;2023-11-21T07:00:35;94177.60;;;4.63;69.67
49915;BME280;35806;47.958;13.158;2023-11-21T07:03:07;94175.08;;;5.63;66.80
49915;BME280;35806;47.958;13.158;2023-11-21T07:05:34;94180.00;;;5.42;67.19
49915;BME280;35806;47.958;13.158;2023-11-21T07:08:01;94182.68;;;5.23;66.79
49915;BME280;35806;47.958;13.158;2023-11-21T07:10:29;94185.42;;;4.94;69.09
49915;BME280;35806;47.958;13.158;2023-11-21T07:12:56;94190.87;;;5.23;68.07
49915;BME280;35806;47.958;13.158;2023-11-21T07:15:24;94193.07;;;4.84;68.06
49915;BME280;35806;47.958;13.158;2023-11-21T07:17:57;94192.41;;;5.38;68.42
49915;BME280;35806;47.958;13.158;2023-11-21T07:20:24;94198.00;;;4.28;70.78
49915;BME280;35806;47.958;13.158;2023-11-21T07:22:51;94201.92;;;3.60;72.30
49915;BME280;35806;47.958;13.158;2023-11-21T07:25:19;94196.61;;;4.08;71.82
49915;BME280;35806;47.958;13.158;2023-11-21T07:27:47;94199.09;;;4.10;70.21
49915;BME280;35806;47.958;13.158;2023-11-21T07:30:19;94201.61;;;3.68;71.94
49915;BME280;35806;47.958;13.158;2023-11-21T07:32:46;94203.17;;;3.11;74.75
49915;BME280;35806;47.958;13.158;2023-11-21T07:35:13;94206.98;;;3.21;74.48
49915;BME280;35806;47.958;13.158;2023-11-21T07:37:40;94209.90;;;3.28;75.28
49915;BME280;35806;47.958;13.158;2023-11-21T07:40:10;94210.74;;;3.28;75.42
49915;BME280;35806;47.958;13.158;2023-11-21T07:42:37;94211.87;;;4.05;74.03
49915;BME280;35806;47.958;13.158;2023-11-21T07:45:05;94209.78;;;3.76;73.54
49915;BME280;35806;47.958;13.158;2023-11-21T07:47:33;94209.87;;;3.32;74.49
49915;BME280;35806;47.958;13.158;2023-11-21T07:50:02;94211.34;;;3.86;73.30
49915;BME280;35806;47.958;13.158;2023-11-21T07:52:29;94215.00;;;3.66;73.79
49915;BME280;35806;47.958;13.158;2023-11-21T07:54:56;94215.11;;;3.94;72.76
49915;BME280;35806;47.958;13.158;2023-11-21T07:57:24;94215.40;;;4.12;72.61
49915;BME280;35806;47.958;13.158;2023-11-21T07:59:51;94214.78;;;3.97;72.67
49915;BME280;35806;47.958;13.158;2023-11-21T08:02:18;94216.23;;;4.49;71.30
49915;BME280;35806;47.958;13.158;2023-11-21T08:04:44;94214.12;;;3.94;72.64
49915;BME280;35806;47.958;13.158;2023-11-21T08:07:11;94216.55;;;3.46;74.15
49915;BME280;35806;47.958;13.158;2023-11-21T08:09:39;94219.71;;;3.53;74.73
49915;BME280;35806;47.958;13.158;2023-11-21T08:12:07;94219.39;;;3.80;74.32
49915;BME280;35806;47.958;13.158;2023-11-21T08:14:34;94221.67;;;3.55;75.31
49915;BME280;35806;47.958;13.158;2023-11-21T08:17:02;94221.60;;;4.17;73.45
49915;BME280;35806;47.958;13.158;2023-11-21T08:19:29;94220.47;;;3.44;74.89
49915;BME280;35806;47.958;13.158;2023-11-21T08:21:57;94217.06;;;4.95;71.36
49915;BME280;35806;47.958;13.158;2023-11-21T08:24:25;94217.96;;;4.47;72.20
49915;BME280;35806;47.958;13.158;2023-11-21T08:26:57;94223.07;;;4.00;72.56
49915;BME280;35806;47.958;13.158;2023-11-21T08:29:24;94225.26;;;3.81;73.88
49915;BME280;35806;47.958;13.158;2023-11-21T08:31:52;94220.47;;;5.13;70.90
49915;BME280;35806;47.958;13.158;2023-11-21T08:34:19;94225.41;;;4.18;71.94
49915;BME280;35806;47.958;13.158;2023-11-21T08:36:51;94223.01;;;5.34;69.12
49915;BME280;35806;47.958;13.158;2023-11-21T08:39:23;94222.84;;;5.50;68.03
49915;BME280;35806;47.958;13.158;2023-11-21T08:41:55;94221.77;;;5.94;66.34
49915;BME280;35806;47.958;13.158;2023-11-21T08:44:22;94218.83;;;5.79;66.44
49915;BME280;35806;47.958;13.158;2023-11-21T08:46:50;94220.55;;;6.08;65.69
49915;BME280;35806;47.958;13.158;2023-11-21T08:49:40;94219.27;;;5.74;65.82
49915;BME280;35806;47.958;13.158;2023-11-21T08:52:54;94222.29;;;6.45;61.90
49915;BME280;35806;47.958;13.158;2023-11-21T08:55:21;94221.11;;;7.06;62.13
49915;BME280;35806;47.958;13.158;2023-11-21T08:57:48;94225.26;;;7.27;62.30
49915;BME280;35806;47.958;13.158;2023-11-21T09:00:16;94228.84;;;7.12;61.07
49915;BME280;35806;47.958;13.158;2023-11-21T09:02:44;94228.19;;;6.54;63.07
49915;BME280;35806;47.958;13.158;2023-11-21T09:05:16;94228.09;;;6.27;64.20
49915;BME280;35806;47.958;13.158;2023-11-21T09:07:43;94230.05;;;6.36;63.16
49915;BME280;35806;47.958;13.158;2023-11-21T09:10:15;94230.34;;;6.61;63.47
49915;BME280;35806;47.958;13.158;2023-11-21T09:12:43;94232.26;;;7.07;63.39
49915;BME280;35806;47.958;13.158;2023-11-21T09:15:10;94232.34;;;7.25;62.87
49915;BME280;35806;47.958;13.158;2023-11-21T09:17:38;94235.36;;;6.94;62.75
49915;BME280;35806;47.958;13.158;2023-11-21T09:20:08;94237.47;;;7.21;62.37
49915;BME280;35806;47.958;13.158;2023-11-21T09:22:34;94239.67;;;6.92;63.14
49915;BME280;35806;47.958;13.158;2023-11-21T09:25:02;94243.47;;;7.10;63.23
49915;BME280;35806;47.958;13.158;2023-11-21T09:27:30;94247.73;;;6.38;64.69
49915;BME280;35806;47.958;13.158;2023-11-21T09:29:57;94252.31;;;5.54;66.97
49915;BME280;35806;47.958;13.158;2023-11-21T09:32:25;94253.97;;;5.37;67.93
49915;BME280;35806;47.958;13.158;2023-11-21T09:34:52;94255.03;;;5.94;67.31
49915;BME280;35806;47.958;13.158;2023-11-21T09:37:20;94253.06;;;6.01;67.02
49915;BME280;35806;47.958;13.158;2023-11-21T09:39:52;94254.89;;;5.81;67.08
49915;BME280;35806;47.958;13.158;2023-11-21T09:42:25;94253.24;;;5.70;66.71
49915;BME280;35806;47.958;13.158;2023-11-21T09:45:26;94251.14;;;7.60;64.17
49915;BME280;35806;47.958;13.158;2023-11-21T09:47:54;94249.95;;;7.63;63.29
49915;BME280;35806;47.958;13.158;2023-11-21T09:50:23;94249.71;;;6.51;65.27
49915;BME280;35806;47.958;13.158;2023-11-21T09:52:57;94247.69;;;6.64;64.93
49915;BME280;35806;47.958;13.158;2023-11-21T09:55:30;94246.64;;;6.06;66.64
49915;BME280;35806;47.958;13.158;2023-11-21T09:58:00;94243.80;;;7.17;65.15
49915;BME280;35806;47.958;13.158;2023-11-21T10:00:36;94246.30;;;6.98;64.51
49915;BME280;35806;47.958;13.158;2023-11-21T10:03:03;94240.60;;;7.35;63.92
49915;BME280;35806;47.958;13.158;2023-11-21T10:05:31;94239.71;;;7.61;63.74
49915;BME280;35806;47.958;13.158;2023-11-21T10:08:07;94241.35;;;7.87;63.51
49915;BME280;35806;47.958;13.158;2023-11-21T10:10:36;94239.78;;;8.06;62.67
49915;BME280;35806;47.958;13.158;2023-11-21T10:13:05;94243.10;;;7.81;62.55
49915;BME280;35806;47.958;13.158;2023-11-21T10:16:06;94242.72;;;6.40;62.78
49915;BME280;35806;47.958;13.158;2023-11-21T10:19:20;94241.26;;;6.86;61.94
49915;BME280;35806;47.958;13.158;2023-11-21T10:21:47;94241.53;;;7.15;61.72
49915;BME280;35806;47.958;13.158;2023-11-21T10:24:15;94242.08;;;6.65;62.44
49915;BME280;35806;47.958;13.158;2023-11-21T10:26:48;94240.55;;;6.71;63.00
49915;BME280;35806;47.958;13.158;2023-11-21T10:29:15;94238.29;;;6.24;63.75
49915;BME280;35806;47.958;13.158;2023-11-21T10:31:42;94239.28;;;5.45;67.08
49915;BME280;35806;47.958;13.158;2023-11-21T10:34:15;94240.46;;;5.43;68.09
49915;BME280;35806;47.958;13.158;2023-11-21T10:37:11;94245.48;;;3.95;70.68
49915;BME280;35806;47.958;13.158;2023-11-21T10:39:39;94247.84;;;3.39;74.83
49915;BME280;35806;47.958;13.158;2023-11-21T10:42:08;94247.71;;;4.11;74.23
49915;BME280;35806;47.958;13.158;2023-11-21T10:44:35;94244.36;;;4.31;73.56
49915;BME280;35806;47.958;13.158;2023-11-21T10:47:08;94241.73;;;5.13;72.76
49915;BME280;35806;47.958;13.158;2023-11-21T10:49:37;94239.88;;;4.72;72.79
49915;BME280;35806;47.958;13.158;2023-11-21T10:52:04;94240.20;;;5.01;73.50
49915;BME280;35806;47.958;13.158;2023-11-21T10:54:37;94238.41;;;5.16;72.58
49915;BME280;35806;47.958;13.158;2023-11-21T10:57:10;94241.61;;;4.54;73.28
49915;BME280;35806;47.958;13.158;2023-11-21T10:59:40;94245.92;;;4.22;74.20
49915;BME280;35806;47.958;13.158;2023-11-21T11:02:24;94241.74;;;4.02;73.96
49915;BME280;35806;47.958;13.158;2023-11-21T11:04:52;94239.17;;;4.56;72.70
49915;BME280;35806;47.958;13.158;2023-11-21T11:07:21;94235.88;;;4.66;71.68
49915;BME280;35806;47.958;13.158;2023-11-21T11:10:12;94234.48;;;5.54;70.97
49915;BME280;35806;47.958;13.158;2023-11-21T11:12:50;94235.25;;;4.90;71.16
49915;BME280;35806;47.958;13.158;2023-11-21T11:15:23;94232.15;;;4.32;72.74
49915;BME280;35806;47.958;13.158;2023-11-21T11:17:50;94232.68;;;4.13;73.39
49915;BME280;35806;47.958;13.158;2023-11-21T11:20:34;94234.47;;;4.83;72.81
49915;BME280;35806;47.958;13.158;2023-11-21T11:27:09;94229.38;;;6.47;67.93
49915;BME280;35806;47.958;13.158;2023-11-21T11:29:55;94232.64;;;6.06;66.82
49915;BME280;35806;47.958;13.158;2023-11-21T11:32:55;94232.28;;;5.88;67.99
49915;BME280;35806;47.958;13.158;2023-11-21T11:35:41;94233.82;;;7.27;64.15
49915;BME280;35806;47.958;13.158;2023-11-21T11:38:10;94234.13;;;7.79;62.67
49915;BME280;35806;47.958;13.158;2023-11-21T11:40:40;94233.46;;;7.69;61.82
49915;BME280;35806;47.958;13.158;2023-11-21T11:43:07;94230.10;;;8.54;60.85
49915;BME280;35806;47.958;13.158;2023-11-21T11:45:40;94229.73;;;8.07;61.72
49915;BME280;35806;47.958;13.158;2023-11-21T11:48:08;94229.06;;;7.87;61.25
49915;BME280;35806;47.958;13.158;2023-11-21T11:50:35;94229.26;;;8.46;60.15
49915;BME280;35806;47.958;13.158;2023-11-21T11:53:16;94229.48;;;7.35;61.66
49915;BME280;35806;47.958;13.158;2023-11-21T11:55:43;94228.98;;;7.93;60.27
49915;BME280;35806;47.958;13.158;2023-11-21T11:58:11;94228.19;;;8.19;60.16
49915;BME280;35806;47.958;13.158;2023-11-21T12:00:44;94229.96;;;7.86;61.01
49915;BME280;35806;47.958;13.158;2023-11-21T12:03:21;94232.84;;;7.58;60.81
49915;BME280;35806;47.958;13.158;2023-11-21T12:05:49;94233.15;;;6.80;62.19
49915;BME280;35806;47.958;13.158;2023-11-21T12:08:16;94234.78;;;5.74;64.38
49915;BME280;35806;47.958;13.158;2023-11-21T12:10:44;94232.74;;;6.96;63.38
49915;BME280;35806;47.958;13.158;2023-11-21T12:13:12;94231.34;;;6.45;63.73
49915;BME280;35806;47.958;13.158;2023-11-21T12:16:39;94224.48;;;5.96;64.62
49915;BME280;35806;47.958;13.158;2023-11-21T12:19:06;94224.78;;;7.32;61.78
49915;BME280;35806;47.958;13.158;2023-11-21T12:21:34;94222.86;;;7.33;61.64
49915;BME280;35806;47.958;13.158;2023-11-21T12:24:03;94222.83;;;7.47;61.64
49915;BME280;35806;47.958;13.158;2023-11-21T12:26:31;94220.39;;;7.05;63.14
49915;BME280;35806;47.958;13.158;2023-11-21T12:28:58;94218.77;;;6.68;64.57
49915;BME280;35806;47.958;13.158;2023-11-21T12:31:26;94217.54;;;5.96;66.17
49915;BME280;35806;47.958;13.158;2023-11-21T12:33:53;94214.04;;;6.60;65.01
49915;BME280;35806;47.958;13.158;2023-11-21T12:36:22;94216.75;;;7.19;64.23
49915;BME280;35806;47.958;13.158;2023-11-21T12:38:49;94216.22;;;7.58;63.91
49915;BME280;35806;47.958;13.158;2023-11-21T12:41:16;94219.35;;;6.73;64.07
49915;BME280;35806;47.958;13.158;2023-11-21T12:43:43;94218.45;;;7.12;63.33
49915;BME280;35806;47.958;13.158;2023-11-21T12:46:11;94216.96;;;7.92;62.38
49915;BME280;35806;47.958;13.158;2023-11-21T12:48:39;94215.80;;;7.50;62.28
49915;BME280;35806;47.958;13.158;2023-11-21T12:51:07;94215.18;;;7.56;62.16
49915;BME280;35806;47.958;13.158;2023-11-21T12:53:34;94211.66;;;7.32;61.59
49915;BME280;35806;47.958;13.158;2023-11-21T12:56:09;94215.46;;;7.79;61.27
49915;BME280;35806;47.958;13.158;2023-11-21T12:58:37;94218.28;;;7.40;61.48
49915;BME280;35806;47.958;13.158;2023-11-21T13:01:15;94222.84;;;7.15;62.22
49915;BME280;35806;47.958;13.158;2023-11-21T13:03:42;94225.72;;;7.84;61.35
49915;BME280;35806;47.958;13.158;2023-11-21T13:06:17;94225.81;;;6.90;62.02
49915;BME280;35806;47.958;13.158;2023-11-21T13:08:45;94227.92;;;7.63;61.48
49915;BME280;35806;47.958;13.158;2023-11-21T13:11:14;94220.39;;;7.92;61.19
49915;BME280;35806;47.958;13.158;2023-11-21T13:13:42;94219.07;;;7.71;61.56
49915;BME280;35806;47.958;13.158;2023-11-21T13:16:10;94223.38;;;7.67;61.57
49915;BME280;35806;47.958;13.158;2023-11-21T13:18:42;94226.35;;;7.27;62.40
49915;BME280;35806;47.958;13.158;2023-11-21T13:21:09;94229.06;;;7.95;61.24
49915;BME280;35806;47.958;13.158;2023-11-21T13:23:37;94230.16;;;6.98;63.61
49915;BME280;35806;47.958;13.158;2023-11-21T13:26:05;94233.04;;;7.57;63.01
49915;BME280;35806;47.958;13.158;2023-11-21T13:28:32;94231.95;;;6.19;65.19
49915;BME280;35806;47.958;13.158;2023-11-21T13:31:00;94231.21;;;7.35;63.86